aviador You're here:

SGES Decoded Metar

GUARANY in PARAGUAY
Report Time2017-12-11 00:00:00
UTC Time2017-12-11 00:29:30
Flight Rules vfr VFR
Wind230° at 09 kt
W.Decomp.*RWY 23: 8.7 kt HW 2.3 kt RCW
W.Rank230° ranks 24
Current wind is above 230° avg. (8.2)
Visibility9999 m
Phenomena:N/A
Clouds:N/A
Expected CloudBase > 3,600 ft AGL from Temp-Dew spread
CeilingNone
Temp28°C (ISA +19)
Dew Point19°C (58% RH)
Heat Index29.2°C
QNH1006 hPa
Density Alt5,443 ft
Elevation2,785 ft
Report Wrong Elevation
Raw Report
SGES 110000Z 23009KT CAVOK 28/19 Q1006=

Extra information for SGES:More info

Metar Taf Metar & Taf Last 4 Metars F.Rules Stats Wind Profile Meteogram Temp Stats Airport Information Weather charts Add Link Nearby VenuesMetar ALERT Operation Metar Decoded Social comments